Terminal Aerodrome Forecast
Issued by NWS Quad Cities IA IL

Home | Current Version | Previous Version | Text Only | Print | Product List | Glossary On
Versions: 1 2 3 4 5 6 7 8 9 10 11 12 13 14 15 16 17 18 19 20 21 22 23 24 25 26 27 28 29 30 31 32 33 34
000
FTUS43 KDVN 301737
TAFDBQ
TAF
KDBQ 301737Z 3018/3118 25003KT P6SM SCT020
     FM310000 33005KT P6SM BKN200
      TEMPO 3100/3104 4SM BR OVC015
     FM310900 02006KT P6SM FEW250=

USA.gov is the U.S. government's official web portal to all federal, state and local government web resources and services.